sensor_id;sensor_type;location;lat;lon;timestamp;P1;durP1;ratioP1;P2;durP2;ratioP2
23360;SDS011;11852;50.082;18.554;2023-04-05T00:01:03;140.0;;;67.0;;
23360;SDS011;11852;50.082;18.554;2023-04-05T00:02:10;143.0;;;67.0;;
23360;SDS011;11852;50.082;18.554;2023-04-05T00:03:17;146.0;;;69.0;;
23360;SDS011;11852;50.082;18.554;2023-04-05T00:04:26;137.0;;;65.0;;
23360;SDS011;11852;50.082;18.554;2023-04-05T00:05:33;136.0;;;61.0;;
23360;SDS011;11852;50.082;18.554;2023-04-05T00:06:40;132.0;;;62.0;;
23360;SDS011;11852;50.082;18.554;2023-04-05T00:07:47;133.0;;;60.0;;
23360;SDS011;11852;50.082;18.554;2023-04-05T00:10:06;128.0;;;62.0;;
23360;SDS011;11852;50.082;18.554;2023-04-05T00:11:12;126.0;;;59.0;;
23360;SDS011;11852;50.082;18.554;2023-04-05T00:12:19;127.0;;;60.0;;
23360;SDS011;11852;50.082;18.554;2023-04-05T00:13:26;125.0;;;58.0;;
23360;SDS011;11852;50.082;18.554;2023-04-05T00:14:33;121.0;;;55.0;;
23360;SDS011;11852;50.082;18.554;2023-04-05T00:15:40;117.0;;;52.0;;
23360;SDS011;11852;50.082;18.554;2023-04-05T00:16:47;115.0;;;51.0;;
23360;SDS011;11852;50.082;18.554;2023-04-05T00:17:53;117.0;;;52.0;;
23360;SDS011;11852;50.082;18.554;2023-04-05T00:19:00;120.0;;;52.0;;
23360;SDS011;11852;50.082;18.554;2023-04-05T00:20:07;126.0;;;55.0;;
23360;SDS011;11852;50.082;18.554;2023-04-05T00:21:14;123.0;;;54.0;;
23360;SDS011;11852;50.082;18.554;2023-04-05T00:22:21;125.0;;;57.0;;
23360;SDS011;11852;50.082;18.554;2023-04-05T00:23:27;122.0;;;56.0;;
23360;SDS011;11852;50.082;18.554;2023-04-05T00:24:34;123.0;;;54.0;;
23360;SDS011;11852;50.082;18.554;2023-04-05T00:25:41;126.0;;;57.0;;
23360;SDS011;11852;50.082;18.554;2023-04-05T00:26:48;122.0;;;57.0;;
23360;SDS011;11852;50.082;18.554;2023-04-05T00:27:55;123.0;;;59.0;;
23360;SDS011;11852;50.082;18.554;2023-04-05T00:29:01;117.0;;;53.0;;
23360;SDS011;11852;50.082;18.554;2023-04-05T00:30:08;123.0;;;58.0;;
23360;SDS011;11852;50.082;18.554;2023-04-05T00:31:15;129.0;;;56.0;;
23360;SDS011;11852;50.082;18.554;2023-04-05T00:32:22;125.0;;;58.0;;
23360;SDS011;11852;50.082;18.554;2023-04-05T00:33:29;125.0;;;57.0;;
23360;SDS011;11852;50.082;18.554;2023-04-05T00:34:36;125.0;;;58.0;;
23360;SDS011;11852;50.082;18.554;2023-04-05T00:35:42;123.0;;;58.0;;
23360;SDS011;11852;50.082;18.554;2023-04-05T00:36:49;120.0;;;55.0;;
23360;SDS011;11852;50.082;18.554;2023-04-05T00:37:56;123.0;;;56.0;;
23360;SDS011;11852;50.082;18.554;2023-04-05T00:39:03;119.0;;;56.0;;
23360;SDS011;11852;50.082;18.554;2023-04-05T00:40:10;115.0;;;55.0;;
23360;SDS011;11852;50.082;18.554;2023-04-05T00:41:16;118.0;;;55.0;;
23360;SDS011;11852;50.082;18.554;2023-04-05T00:42:23;122.0;;;59.0;;
23360;SDS011;11852;50.082;18.554;2023-04-05T00:43:30;124.0;;;56.0;;
23360;SDS011;11852;50.082;18.554;2023-04-05T00:44:37;130.0;;;60.0;;
23360;SDS011;11852;50.082;18.554;2023-04-05T00:45:43;130.0;;;61.0;;
23360;SDS011;11852;50.082;18.554;2023-04-05T00:46:50;127.0;;;60.0;;
23360;SDS011;11852;50.082;18.554;2023-04-05T00:47:57;133.0;;;63.0;;
23360;SDS011;11852;50.082;18.554;2023-04-05T00:49:04;134.0;;;60.0;;
23360;SDS011;11852;50.082;18.554;2023-04-05T00:50:11;130.0;;;61.0;;
23360;SDS011;11852;50.082;18.554;2023-04-05T00:51:17;130.0;;;61.0;;
23360;SDS011;11852;50.082;18.554;2023-04-05T00:52:24;131.0;;;61.0;;
23360;SDS011;11852;50.082;18.554;2023-04-05T00:53:31;134.0;;;61.0;;
23360;SDS011;11852;50.082;18.554;2023-04-05T00:54:37;130.0;;;59.0;;
23360;SDS011;11852;50.082;18.554;2023-04-05T00:55:45;132.0;;;63.0;;
23360;SDS011;11852;50.082;18.554;2023-04-05T00:56:54;134.0;;;62.0;;
23360;SDS011;11852;50.082;18.554;2023-04-05T00:58:00;134.0;;;63.0;;
23360;SDS011;11852;50.082;18.554;2023-04-05T00:59:07;132.0;;;59.0;;
23360;SDS011;11852;50.082;18.554;2023-04-05T01:00:14;124.0;;;55.0;;
23360;SDS011;11852;50.082;18.554;2023-04-05T01:01:21;127.0;;;55.0;;
23360;SDS011;11852;50.082;18.554;2023-04-05T01:02:30;119.0;;;52.0;;
23360;SDS011;11852;50.082;18.554;2023-04-05T01:03:34;116.0;;;51.0;;
23360;SDS011;11852;50.082;18.554;2023-04-05T01:04:41;119.0;;;53.0;;
23360;SDS011;11852;50.082;18.554;2023-04-05T01:05:49;121.0;;;54.0;;
23360;SDS011;11852;50.082;18.554;2023-04-05T01:08:17;128.0;;;57.0;;
23360;SDS011;11852;50.082;18.554;2023-04-05T01:10:38;132.0;;;57.0;;
23360;SDS011;11852;50.082;18.554;2023-04-05T01:11:43;132.0;;;58.0;;
23360;SDS011;11852;50.082;18.554;2023-04-05T01:12:49;129.0;;;60.0;;
23360;SDS011;11852;50.082;18.554;2023-04-05T01:13:59;137.0;;;62.0;;
23360;SDS011;11852;50.082;18.554;2023-04-05T01:15:03;135.0;;;59.0;;
23360;SDS011;11852;50.082;18.554;2023-04-05T01:16:10;137.0;;;58.0;;
23360;SDS011;11852;50.082;18.554;2023-04-05T01:17:17;137.0;;;60.0;;
23360;SDS011;11852;50.082;18.554;2023-04-05T01:18:26;132.0;;;60.0;;
23360;SDS011;11852;50.082;18.554;2023-04-05T01:19:33;133.0;;;58.0;;
23360;SDS011;11852;50.082;18.554;2023-04-05T01:20:41;137.0;;;62.0;;
23360;SDS011;11852;50.082;18.554;2023-04-05T01:26:48;140.0;;;61.0;;
23360;SDS011;11852;50.082;18.554;2023-04-05T01:28:04;147.0;;;63.0;;
23360;SDS011;11852;50.082;18.554;2023-04-05T01:34:04;186.0;;;75.0;;
23360;SDS011;11852;50.082;18.554;2023-04-05T01:35:15;180.0;;;75.0;;
23360;SDS011;11852;50.082;18.554;2023-04-05T01:37:33;198.0;;;84.0;;
23360;SDS011;11852;50.082;18.554;2023-04-05T01:38:39;213.0;;;91.0;;
23360;SDS011;11852;50.082;18.554;2023-04-05T01:39:46;205.0;;;86.0;;
23360;SDS011;11852;50.082;18.554;2023-04-05T01:40:53;214.0;;;90.0;;
23360;SDS011;11852;50.082;18.554;2023-04-05T01:41:59;218.0;;;93.0;;
23360;SDS011;11852;50.082;18.554;2023-04-05T01:44:18;205.0;;;92.0;;
23360;SDS011;11852;50.082;18.554;2023-04-05T01:45:24;197.0;;;89.0;;
23360;SDS011;11852;50.082;18.554;2023-04-05T01:46:31;210.0;;;95.0;;
23360;SDS011;11852;50.082;18.554;2023-04-05T01:47:38;200.0;;;90.0;;
23360;SDS011;11852;50.082;18.554;2023-04-05T01:48:45;190.0;;;86.0;;
23360;SDS011;11852;50.082;18.554;2023-04-05T01:49:52;191.0;;;86.0;;
23360;SDS011;11852;50.082;18.554;2023-04-05T01:50:58;177.0;;;85.0;;
23360;SDS011;11852;50.082;18.554;2023-04-05T01:52:05;192.0;;;85.0;;
23360;SDS011;11852;50.082;18.554;2023-04-05T01:53:12;189.0;;;86.0;;
23360;SDS011;11852;50.082;18.554;2023-04-05T01:54:19;185.0;;;84.0;;
23360;SDS011;11852;50.082;18.554;2023-04-05T01:55:26;183.0;;;84.0;;
23360;SDS011;11852;50.082;18.554;2023-04-05T01:56:32;178.0;;;80.0;;
23360;SDS011;11852;50.082;18.554;2023-04-05T01:57:39;174.0;;;80.0;;
23360;SDS011;11852;50.082;18.554;2023-04-05T01:58:46;175.0;;;81.0;;
23360;SDS011;11852;50.082;18.554;2023-04-05T01:59:52;178.0;;;79.0;;
23360;SDS011;11852;50.082;18.554;2023-04-05T02:00:59;172.0;;;79.0;;
23360;SDS011;11852;50.082;18.554;2023-04-05T02:02:06;172.0;;;78.0;;
23360;SDS011;11852;50.082;18.554;2023-04-05T02:03:13;173.0;;;78.0;;
23360;SDS011;11852;50.082;18.554;2023-04-05T02:04:19;176.0;;;81.0;;
23360;SDS011;11852;50.082;18.554;2023-04-05T02:05:26;173.0;;;76.0;;
23360;SDS011;11852;50.082;18.554;2023-04-05T02:06:33;176.0;;;81.0;;
23360;SDS011;11852;50.082;18.554;2023-04-05T02:07:40;173.0;;;80.0;;
23360;SDS011;11852;50.082;18.554;2023-04-05T02:08:46;180.0;;;79.0;;
23360;SDS011;11852;50.082;18.554;2023-04-05T02:09:53;184.0;;;78.0;;
23360;SDS011;11852;50.082;18.554;2023-04-05T02:11:00;173.0;;;80.0;;
23360;SDS011;11852;50.082;18.554;2023-04-05T02:12:07;174.0;;;78.0;;
23360;SDS011;11852;50.082;18.554;2023-04-05T02:13:14;168.0;;;78.0;;
23360;SDS011;11852;50.082;18.554;2023-04-05T02:14:21;180.0;;;81.0;;
23360;SDS011;11852;50.082;18.554;2023-04-05T02:15:27;191.0;;;88.0;;
23360;SDS011;11852;50.082;18.554;2023-04-05T02:16:34;190.0;;;86.0;;
23360;SDS011;11852;50.082;18.554;2023-04-05T02:17:41;186.0;;;85.0;;
23360;SDS011;11852;50.082;18.554;2023-04-05T02:18:48;185.0;;;85.0;;
23360;SDS011;11852;50.082;18.554;2023-04-05T02:19:54;180.0;;;84.0;;
23360;SDS011;11852;50.082;18.554;2023-04-05T02:21:02;189.0;;;85.0;;
23360;SDS011;11852;50.082;18.554;2023-04-05T02:22:08;195.0;;;89.0;;
23360;SDS011;11852;50.082;18.554;2023-04-05T02:23:16;201.0;;;92.0;;
23360;SDS011;11852;50.082;18.554;2023-04-05T02:24:22;216.0;;;94.0;;
23360;SDS011;11852;50.082;18.554;2023-04-05T02:25:28;229.0;;;102.0;;
23360;SDS011;11852;50.082;18.554;2023-04-05T02:26:35;268.0;;;113.0;;
23360;SDS011;11852;50.082;18.554;2023-04-05T02:27:42;261.0;;;114.0;;
23360;SDS011;11852;50.082;18.554;2023-04-05T02:28:49;268.0;;;113.0;;
23360;SDS011;11852;50.082;18.554;2023-04-05T02:29:55;294.0;;;119.0;;
23360;SDS011;11852;50.082;18.554;2023-04-05T02:31:07;306.0;;;126.0;;
23360;SDS011;11852;50.082;18.554;2023-04-05T02:32:09;323.0;;;130.0;;
23360;SDS011;11852;50.082;18.554;2023-04-05T02:33:16;338.0;;;130.0;;
23360;SDS011;11852;50.082;18.554;2023-04-05T02:34:22;323.0;;;120.0;;
23360;SDS011;11852;50.082;18.554;2023-04-05T02:35:29;299.0;;;114.0;;
23360;SDS011;11852;50.082;18.554;2023-04-05T02:36:36;272.0;;;102.0;;
23360;SDS011;11852;50.082;18.554;2023-04-05T02:37:43;259.0;;;97.0;;
23360;SDS011;11852;50.082;18.554;2023-04-05T02:38:49;221.0;;;83.0;;
23360;SDS011;11852;50.082;18.554;2023-04-05T02:39:56;194.0;;;76.0;;
23360;SDS011;11852;50.082;18.554;2023-04-05T02:41:06;172.0;;;68.0;;
23360;SDS011;11852;50.082;18.554;2023-04-05T02:42:10;152.0;;;61.0;;
23360;SDS011;11852;50.082;18.554;2023-04-05T02:43:16;145.0;;;57.0;;
23360;SDS011;11852;50.082;18.554;2023-04-05T02:44:23;146.0;;;61.0;;
23360;SDS011;11852;50.082;18.554;2023-04-05T02:45:30;150.0;;;62.0;;
23360;SDS011;11852;50.082;18.554;2023-04-05T02:46:37;139.0;;;58.0;;
23360;SDS011;11852;50.082;18.554;2023-04-05T02:47:44;140.0;;;60.0;;
23360;SDS011;11852;50.082;18.554;2023-04-05T02:48:50;139.0;;;59.0;;
23360;SDS011;11852;50.082;18.554;2023-04-05T02:49:57;142.0;;;59.0;;
23360;SDS011;11852;50.082;18.554;2023-04-05T02:51:04;139.0;;;60.0;;
23360;SDS011;11852;50.082;18.554;2023-04-05T02:52:11;134.0;;;59.0;;
23360;SDS011;11852;50.082;18.554;2023-04-05T02:53:17;131.0;;;57.0;;
23360;SDS011;11852;50.082;18.554;2023-04-05T02:54:24;129.0;;;57.0;;
23360;SDS011;11852;50.082;18.554;2023-04-05T02:55:31;120.0;;;54.0;;
23360;SDS011;11852;50.082;18.554;2023-04-05T02:56:38;123.0;;;56.0;;
23360;SDS011;11852;50.082;18.554;2023-04-05T02:57:44;120.0;;;54.0;;
23360;SDS011;11852;50.082;18.554;2023-04-05T02:58:51;126.0;;;57.0;;
23360;SDS011;11852;50.082;18.554;2023-04-05T02:59:58;124.0;;;55.0;;
23360;SDS011;11852;50.082;18.554;2023-04-05T03:01:05;129.0;;;59.0;;
23360;SDS011;11852;50.082;18.554;2023-04-05T03:02:12;131.0;;;59.0;;
23360;SDS011;11852;50.082;18.554;2023-04-05T03:03:19;132.0;;;60.0;;
23360;SDS011;11852;50.082;18.554;2023-04-05T03:04:25;145.0;;;66.0;;
23360;SDS011;11852;50.082;18.554;2023-04-05T03:05:32;155.0;;;70.0;;
23360;SDS011;11852;50.082;18.554;2023-04-05T03:06:39;165.0;;;76.0;;
23360;SDS011;11852;50.082;18.554;2023-04-05T03:07:46;168.0;;;74.0;;
23360;SDS011;11852;50.082;18.554;2023-04-05T03:08:52;168.0;;;75.0;;
23360;SDS011;11852;50.082;18.554;2023-04-05T03:09:59;167.0;;;75.0;;
23360;SDS011;11852;50.082;18.554;2023-04-05T03:11:06;161.0;;;74.0;;
23360;SDS011;11852;50.082;18.554;2023-04-05T03:12:13;158.0;;;72.0;;
23360;SDS011;11852;50.082;18.554;2023-04-05T03:13:19;165.0;;;74.0;;
23360;SDS011;11852;50.082;18.554;2023-04-05T03:14:26;166.0;;;75.0;;
23360;SDS011;11852;50.082;18.554;2023-04-05T03:15:33;168.0;;;73.0;;
23360;SDS011;11852;50.082;18.554;2023-04-05T03:16:40;162.0;;;73.0;;
23360;SDS011;11852;50.082;18.554;2023-04-05T03:17:47;165.0;;;74.0;;
23360;SDS011;11852;50.082;18.554;2023-04-05T03:18:53;163.0;;;77.0;;
23360;SDS011;11852;50.082;18.554;2023-04-05T03:20:00;161.0;;;74.0;;
23360;SDS011;11852;50.082;18.554;2023-04-05T03:21:07;164.0;;;75.0;;
23360;SDS011;11852;50.082;18.554;2023-04-05T03:22:14;157.0;;;70.0;;
23360;SDS011;11852;50.082;18.554;2023-04-05T03:23:21;144.0;;;66.0;;
23360;SDS011;11852;50.082;18.554;2023-04-05T03:24:27;151.0;;;67.0;;
23360;SDS011;11852;50.082;18.554;2023-04-05T03:25:35;133.0;;;58.0;;
23360;SDS011;11852;50.082;18.554;2023-04-05T03:26:44;137.0;;;60.0;;
23360;SDS011;11852;50.082;18.554;2023-04-05T03:27:51;136.0;;;61.0;;
23360;SDS011;11852;50.082;18.554;2023-04-05T03:28:58;139.0;;;61.0;;
23360;SDS011;11852;50.082;18.554;2023-04-05T03:30:05;134.0;;;62.0;;
23360;SDS011;11852;50.082;18.554;2023-04-05T03:31:12;138.0;;;64.0;;
23360;SDS011;11852;50.082;18.554;2023-04-05T03:32:18;144.0;;;62.0;;
23360;SDS011;11852;50.082;18.554;2023-04-05T03:33:25;145.0;;;63.0;;
23360;SDS011;11852;50.082;18.554;2023-04-05T03:34:32;151.0;;;68.0;;
23360;SDS011;11852;50.082;18.554;2023-04-05T03:35:39;165.0;;;76.0;;
23360;SDS011;11852;50.082;18.554;2023-04-05T03:36:45;174.0;;;75.0;;
23360;SDS011;11852;50.082;18.554;2023-04-05T03:37:52;192.0;;;78.0;;
23360;SDS011;11852;50.082;18.554;2023-04-05T03:38:59;203.0;;;86.0;;
23360;SDS011;11852;50.082;18.554;2023-04-05T03:40:05;184.0;;;81.0;;
23360;SDS011;11852;50.082;18.554;2023-04-05T03:41:12;178.0;;;81.0;;
23360;SDS011;11852;50.082;18.554;2023-04-05T03:42:19;177.0;;;79.0;;
23360;SDS011;11852;50.082;18.554;2023-04-05T03:43:26;178.0;;;82.0;;
23360;SDS011;11852;50.082;18.554;2023-04-05T03:44:33;159.0;;;78.0;;
23360;SDS011;11852;50.082;18.554;2023-04-05T03:45:39;156.0;;;73.0;;
23360;SDS011;11852;50.082;18.554;2023-04-05T03:46:46;161.0;;;75.0;;
23360;SDS011;11852;50.082;18.554;2023-04-05T03:47:53;152.0;;;73.0;;
23360;SDS011;11852;50.082;18.554;2023-04-05T03:49:00;143.0;;;70.0;;
23360;SDS011;11852;50.082;18.554;2023-04-05T03:50:07;140.0;;;70.0;;
23360;SDS011;11852;50.082;18.554;2023-04-05T03:51:13;137.0;;;67.0;;
23360;SDS011;11852;50.082;18.554;2023-04-05T03:52:20;124.0;;;62.0;;
23360;SDS011;11852;50.082;18.554;2023-04-05T03:53:27;127.0;;;64.0;;
23360;SDS011;11852;50.082;18.554;2023-04-05T03:54:34;114.0;;;52.0;;
23360;SDS011;11852;50.082;18.554;2023-04-05T03:55:40;106.0;;;51.0;;
23360;SDS011;11852;50.082;18.554;2023-04-05T03:56:47;102.0;;;49.0;;
23360;SDS011;11852;50.082;18.554;2023-04-05T03:57:54;104.0;;;48.0;;
23360;SDS011;11852;50.082;18.554;2023-04-05T03:59:01;92.0;;;45.0;;
23360;SDS011;11852;50.082;18.554;2023-04-05T04:00:12;96.0;;;44.0;;
23360;SDS011;11852;50.082;18.554;2023-04-05T04:01:19;91.0;;;44.0;;
23360;SDS011;11852;50.082;18.554;2023-04-05T04:02:26;91.0;;;44.0;;
23360;SDS011;11852;50.082;18.554;2023-04-05T04:03:33;94.0;;;47.0;;
23360;SDS011;11852;50.082;18.554;2023-04-05T04:04:39;92.0;;;44.0;;
23360;SDS011;11852;50.082;18.554;2023-04-05T04:05:46;87.0;;;43.0;;
23360;SDS011;11852;50.082;18.554;2023-04-05T04:06:53;91.0;;;45.0;;
23360;SDS011;11852;50.082;18.554;2023-04-05T04:08:00;94.0;;;48.0;;
23360;SDS011;11852;50.082;18.554;2023-04-05T04:09:07;96.0;;;50.0;;
23360;SDS011;11852;50.082;18.554;2023-04-05T04:10:15;98.0;;;52.0;;
23360;SDS011;11852;50.082;18.554;2023-04-05T04:11:20;99.0;;;53.0;;
23360;SDS011;11852;50.082;18.554;2023-04-05T04:12:27;97.0;;;53.0;;
23360;SDS011;11852;50.082;18.554;2023-04-05T04:13:34;93.0;;;46.0;;
23360;SDS011;11852;50.082;18.554;2023-04-05T04:14:41;93.0;;;44.0;;
23360;SDS011;11852;50.082;18.554;2023-04-05T04:15:47;94.0;;;48.0;;
23360;SDS011;11852;50.082;18.554;2023-04-05T04:16:54;97.0;;;48.0;;
23360;SDS011;11852;50.082;18.554;2023-04-05T04:18:01;100.0;;;48.0;;
23360;SDS011;11852;50.082;18.554;2023-04-05T04:19:07;93.0;;;47.0;;
23360;SDS011;11852;50.082;18.554;2023-04-05T04:20:14;98.0;;;50.0;;
23360;SDS011;11852;50.082;18.554;2023-04-05T04:21:21;98.0;;;51.0;;
23360;SDS011;11852;50.082;18.554;2023-04-05T04:22:33;93.0;;;47.0;;
23360;SDS011;11852;50.082;18.554;2023-04-05T04:23:39;95.0;;;48.0;;
23360;SDS011;11852;50.082;18.554;2023-04-05T04:24:46;100.0;;;51.0;;
23360;SDS011;11852;50.082;18.554;2023-04-05T04:25:53;100.0;;;51.0;;
23360;SDS011;11852;50.082;18.554;2023-04-05T04:27:00;99.0;;;50.0;;
23360;SDS011;11852;50.082;18.554;2023-04-05T04:28:06;98.0;;;52.0;;
23360;SDS011;11852;50.082;18.554;2023-04-05T04:29:13;101.0;;;51.0;;
23360;SDS011;11852;50.082;18.554;2023-04-05T04:30:20;106.0;;;54.0;;
23360;SDS011;11852;50.082;18.554;2023-04-05T04:31:26;109.0;;;56.0;;
23360;SDS011;11852;50.082;18.554;2023-04-05T04:32:39;121.0;;;58.0;;
23360;SDS011;11852;50.082;18.554;2023-04-05T04:33:46;111.0;;;57.0;;
23360;SDS011;11852;50.082;18.554;2023-04-05T04:34:52;105.0;;;52.0;;
23360;SDS011;11852;50.082;18.554;2023-04-05T04:35:58;106.0;;;54.0;;
23360;SDS011;11852;50.082;18.554;2023-04-05T04:37:05;105.0;;;55.0;;
23360;SDS011;11852;50.082;18.554;2023-04-05T04:38:17;101.0;;;53.0;;
23360;SDS011;11852;50.082;18.554;2023-04-05T04:39:24;106.0;;;55.0;;
23360;SDS011;11852;50.082;18.554;2023-04-05T04:40:34;101.0;;;52.0;;
23360;SDS011;11852;50.082;18.554;2023-04-05T04:41:43;106.0;;;59.0;;
23360;SDS011;11852;50.082;18.554;2023-04-05T04:42:47;107.0;;;57.0;;
23360;SDS011;11852;50.082;18.554;2023-04-05T04:43:53;112.0;;;57.0;;
23360;SDS011;11852;50.082;18.554;2023-04-05T04:45:00;110.0;;;62.0;;
23360;SDS011;11852;50.082;18.554;2023-04-05T04:46:07;120.0;;;64.0;;
23360;SDS011;11852;50.082;18.554;2023-04-05T04:47:14;113.0;;;61.0;;
23360;SDS011;11852;50.082;18.554;2023-04-05T04:48:21;112.0;;;58.0;;
23360;SDS011;11852;50.082;18.554;2023-04-05T04:49:28;124.0;;;61.0;;
23360;SDS011;11852;50.082;18.554;2023-04-05T04:50:34;114.0;;;59.0;;
23360;SDS011;11852;50.082;18.554;2023-04-05T04:51:41;124.0;;;62.0;;
23360;SDS011;11852;50.082;18.554;2023-04-05T04:52:48;121.0;;;60.0;;
23360;SDS011;11852;50.082;18.554;2023-04-05T04:53:55;121.0;;;62.0;;
23360;SDS011;11852;50.082;18.554;2023-04-05T04:55:01;121.0;;;62.0;;
23360;SDS011;11852;50.082;18.554;2023-04-05T04:56:08;113.0;;;59.0;;
23360;SDS011;11852;50.082;18.554;2023-04-05T04:57:15;117.0;;;61.0;;
23360;SDS011;11852;50.082;18.554;2023-04-05T04:58:22;124.0;;;63.0;;
23360;SDS011;11852;50.082;18.554;2023-04-05T04:59:29;118.0;;;60.0;;
23360;SDS011;11852;50.082;18.554;2023-04-05T05:01:47;127.0;;;65.0;;
23360;SDS011;11852;50.082;18.554;2023-04-05T05:02:54;126.0;;;65.0;;
23360;SDS011;11852;50.082;18.554;2023-04-05T05:04:02;130.0;;;66.0;;
23360;SDS011;11852;50.082;18.554;2023-04-05T05:05:08;126.0;;;66.0;;
23360;SDS011;11852;50.082;18.554;2023-04-05T05:06:17;130.0;;;69.0;;
23360;SDS011;11852;50.082;18.554;2023-04-05T05:07:24;130.0;;;68.0;;
23360;SDS011;11852;50.082;18.554;2023-04-05T05:08:31;133.0;;;70.0;;
23360;SDS011;11852;50.082;18.554;2023-04-05T05:09:38;128.0;;;64.0;;
23360;SDS011;11852;50.082;18.554;2023-04-05T05:10:45;130.0;;;68.0;;
23360;SDS011;11852;50.082;18.554;2023-04-05T05:11:52;131.0;;;68.0;;
23360;SDS011;11852;50.082;18.554;2023-04-05T05:12:58;123.0;;;65.0;;
23360;SDS011;11852;50.082;18.554;2023-04-05T05:14:05;123.0;;;63.0;;
23360;SDS011;11852;50.082;18.554;2023-04-05T05:15:12;116.0;;;61.0;;
23360;SDS011;11852;50.082;18.554;2023-04-05T05:16:19;118.0;;;60.0;;
23360;SDS011;11852;50.082;18.554;2023-04-05T05:17:25;117.0;;;60.0;;
23360;SDS011;11852;50.082;18.554;2023-04-05T05:18:35;129.0;;;66.0;;
23360;SDS011;11852;50.082;18.554;2023-04-05T05:19:42;138.0;;;66.0;;
23360;SDS011;11852;50.082;18.554;2023-04-05T05:20:49;139.0;;;67.0;;
23360;SDS011;11852;50.082;18.554;2023-04-05T05:21:56;149.0;;;71.0;;
23360;SDS011;11852;50.082;18.554;2023-04-05T05:23:03;146.0;;;72.0;;
23360;SDS011;11852;50.082;18.554;2023-04-05T05:24:09;143.0;;;73.0;;
23360;SDS011;11852;50.082;18.554;2023-04-05T05:25:16;154.0;;;77.0;;
23360;SDS011;11852;50.082;18.554;2023-04-05T05:26:23;171.0;;;80.0;;
23360;SDS011;11852;50.082;18.554;2023-04-05T05:27:30;190.0;;;91.0;;
23360;SDS011;11852;50.082;18.554;2023-04-05T05:28:36;181.0;;;86.0;;
23360;SDS011;11852;50.082;18.554;2023-04-05T05:29:43;172.0;;;83.0;;
23360;SDS011;11852;50.082;18.554;2023-04-05T05:30:50;160.0;;;76.0;;
23360;SDS011;11852;50.082;18.554;2023-04-05T05:31:57;157.0;;;79.0;;
23360;SDS011;11852;50.082;18.554;2023-04-05T05:33:03;157.0;;;75.0;;
23360;SDS011;11852;50.082;18.554;2023-04-05T05:34:10;149.0;;;73.0;;
23360;SDS011;11852;50.082;18.554;2023-04-05T05:35:17;148.0;;;72.0;;
23360;SDS011;11852;50.082;18.554;2023-04-05T05:36:24;142.0;;;69.0;;
23360;SDS011;11852;50.082;18.554;2023-04-05T05:37:31;146.0;;;72.0;;
23360;SDS011;11852;50.082;18.554;2023-04-05T05:38:37;224.0;;;87.0;;
23360;SDS011;11852;50.082;18.554;2023-04-05T05:39:44;221.0;;;88.0;;
23360;SDS011;11852;50.082;18.554;2023-04-05T05:40:54;187.0;;;83.0;;
23360;SDS011;11852;50.082;18.554;2023-04-05T05:42:00;176.0;;;76.0;;
23360;SDS011;11852;50.082;18.554;2023-04-05T05:43:07;170.0;;;72.0;;
23360;SDS011;11852;50.082;18.554;2023-04-05T05:44:14;174.0;;;75.0;;
23360;SDS011;11852;50.082;18.554;2023-04-05T05:45:20;165.0;;;71.0;;
23360;SDS011;11852;50.082;18.554;2023-04-05T05:46:27;160.0;;;68.0;;
23360;SDS011;11852;50.082;18.554;2023-04-05T05:47:34;160.0;;;69.0;;
23360;SDS011;11852;50.082;18.554;2023-04-05T05:48:41;158.0;;;67.0;;
23360;SDS011;11852;50.082;18.554;2023-04-05T05:49:48;155.0;;;70.0;;
23360;SDS011;11852;50.082;18.554;2023-04-05T05:50:55;151.0;;;64.0;;
23360;SDS011;11852;50.082;18.554;2023-04-05T05:52:02;154.0;;;66.0;;
23360;SDS011;11852;50.082;18.554;2023-04-05T05:53:08;154.0;;;67.0;;
23360;SDS011;11852;50.082;18.554;2023-04-05T05:54:15;154.0;;;66.0;;
23360;SDS011;11852;50.082;18.554;2023-04-05T05:55:22;149.0;;;64.0;;
23360;SDS011;11852;50.082;18.554;2023-04-05T05:56:29;152.0;;;61.0;;
23360;SDS011;11852;50.082;18.554;2023-04-05T05:57:35;158.0;;;67.0;;
23360;SDS011;11852;50.082;18.554;2023-04-05T05:58:42;158.0;;;68.0;;
23360;SDS011;11852;50.082;18.554;2023-04-05T05:59:49;165.0;;;67.0;;
23360;SDS011;11852;50.082;18.554;2023-04-05T06:00:56;157.0;;;65.0;;
23360;SDS011;11852;50.082;18.554;2023-04-05T06:02:02;143.0;;;60.0;;
23360;SDS011;11852;50.082;18.554;2023-04-05T06:03:09;138.0;;;57.0;;
23360;SDS011;11852;50.082;18.554;2023-04-05T06:04:16;138.0;;;57.0;;
23360;SDS011;11852;50.082;18.554;2023-04-05T06:05:23;136.0;;;57.0;;
23360;SDS011;11852;50.082;18.554;2023-04-05T06:06:29;124.0;;;54.0;;
23360;SDS011;11852;50.082;18.554;2023-04-05T06:07:36;120.0;;;54.0;;
23360;SDS011;11852;50.082;18.554;2023-04-05T06:08:43;117.0;;;51.0;;
23360;SDS011;11852;50.082;18.554;2023-04-05T06:09:50;117.0;;;55.0;;
23360;SDS011;11852;50.082;18.554;2023-04-05T06:10:56;111.0;;;51.0;;
23360;SDS011;11852;50.082;18.554;2023-04-05T06:12:03;98.0;;;49.0;;
23360;SDS011;11852;50.082;18.554;2023-04-05T06:13:10;99.0;;;49.0;;
23360;SDS011;11852;50.082;18.554;2023-04-05T06:14:17;102.0;;;51.0;;
23360;SDS011;11852;50.082;18.554;2023-04-05T06:15:23;105.0;;;51.0;;
23360;SDS011;11852;50.082;18.554;2023-04-05T06:16:30;104.0;;;54.0;;
23360;SDS011;11852;50.082;18.554;2023-04-05T06:17:37;111.0;;;53.0;;
23360;SDS011;11852;50.082;18.554;2023-04-05T06:18:44;111.0;;;53.0;;
23360;SDS011;11852;50.082;18.554;2023-04-05T06:19:50;106.0;;;52.0;;
23360;SDS011;11852;50.082;18.554;2023-04-05T06:20:57;113.0;;;52.0;;
23360;SDS011;11852;50.082;18.554;2023-04-05T06:22:04;112.0;;;55.0;;
23360;SDS011;11852;50.082;18.554;2023-04-05T06:23:10;111.0;;;54.0;;
23360;SDS011;11852;50.082;18.554;2023-04-05T06:24:17;100.0;;;48.0;;
23360;SDS011;11852;50.082;18.554;2023-04-05T06:25:24;104.0;;;51.0;;
23360;SDS011;11852;50.082;18.554;2023-04-05T06:26:31;102.0;;;53.0;;
23360;SDS011;11852;50.082;18.554;2023-04-05T06:27:38;101.0;;;47.0;;
23360;SDS011;11852;50.082;18.554;2023-04-05T06:28:47;100.0;;;48.0;;
23360;SDS011;11852;50.082;18.554;2023-04-05T06:29:54;95.0;;;47.0;;
23360;SDS011;11852;50.082;18.554;2023-04-05T06:31:00;96.0;;;47.0;;
23360;SDS011;11852;50.082;18.554;2023-04-05T06:32:07;91.0;;;43.0;;
23360;SDS011;11852;50.082;18.554;2023-04-05T06:33:14;85.0;;;43.0;;
23360;SDS011;11852;50.082;18.554;2023-04-05T06:34:21;80.0;;;40.0;;
23360;SDS011;11852;50.082;18.554;2023-04-05T06:35:27;73.0;;;36.0;;
23360;SDS011;11852;50.082;18.554;2023-04-05T06:36:34;59.0;;;31.0;;
23360;SDS011;11852;50.082;18.554;2023-04-05T06:37:41;57.0;;;29.0;;
23360;SDS011;11852;50.082;18.554;2023-04-05T06:38:49;59.0;;;31.0;;
23360;SDS011;11852;50.082;18.554;2023-04-05T06:39:54;56.0;;;31.0;;
23360;SDS011;11852;50.082;18.554;2023-04-05T06:41:01;57.0;;;30.0;;
23360;SDS011;11852;50.082;18.554;2023-04-05T06:42:08;64.0;;;32.0;;
23360;SDS011;11852;50.082;18.554;2023-04-05T06:43:14;62.0;;;32.0;;
23360;SDS011;11852;50.082;18.554;2023-04-05T06:44:21;64.0;;;32.0;;
23360;SDS011;11852;50.082;18.554;2023-04-05T06:45:28;61.0;;;31.0;;
23360;SDS011;11852;50.082;18.554;2023-04-05T06:46:35;64.0;;;33.0;;
23360;SDS011;11852;50.082;18.554;2023-04-05T06:47:41;58.0;;;31.0;;
23360;SDS011;11852;50.082;18.554;2023-04-05T06:48:48;67.0;;;35.0;;
23360;SDS011;11852;50.082;18.554;2023-04-05T06:49:55;69.0;;;34.0;;